sensor_id;sensor_type;location;lat;lon;timestamp;P1;durP1;ratioP1;P2;durP2;ratioP2
616;SDS011;295;51.628;7.520;2022-08-14T00:02:44;5.87;;;5.27;;
616;SDS011;295;51.628;7.520;2022-08-14T00:05:37;5.70;;;5.10;;
616;SDS011;295;51.628;7.520;2022-08-14T00:08:32;10.87;;;6.37;;
616;SDS011;295;51.628;7.520;2022-08-14T00:11:48;5.93;;;5.43;;
616;SDS011;295;51.628;7.520;2022-08-14T00:14:42;7.07;;;6.37;;
616;SDS011;295;51.628;7.520;2022-08-14T00:17:41;6.30;;;5.70;;
616;SDS011;295;51.628;7.520;2022-08-14T00:20:49;5.97;;;5.33;;
616;SDS011;295;51.628;7.520;2022-08-14T00:23:58;6.27;;;5.70;;
616;SDS011;295;51.628;7.520;2022-08-14T00:33:37;6.97;;;5.77;;
616;SDS011;295;51.628;7.520;2022-08-14T00:36:38;16.00;;;7.27;;
616;SDS011;295;51.628;7.520;2022-08-14T00:39:37;5.70;;;5.20;;
616;SDS011;295;51.628;7.520;2022-08-14T00:42:33;11.53;;;5.60;;
616;SDS011;295;51.628;7.520;2022-08-14T00:45:44;6.00;;;5.40;;
616;SDS011;295;51.628;7.520;2022-08-14T00:48:49;6.20;;;5.60;;
616;SDS011;295;51.628;7.520;2022-08-14T00:51:45;6.37;;;5.57;;
616;SDS011;295;51.628;7.520;2022-08-14T00:54:42;6.80;;;6.13;;
616;SDS011;295;51.628;7.520;2022-08-14T00:57:48;6.27;;;5.67;;
616;SDS011;295;51.628;7.520;2022-08-14T01:00:53;6.93;;;6.23;;
616;SDS011;295;51.628;7.520;2022-08-14T01:03:56;6.60;;;5.90;;
616;SDS011;295;51.628;7.520;2022-08-14T01:06:53;8.53;;;5.90;;
616;SDS011;295;51.628;7.520;2022-08-14T01:09:47;7.20;;;5.97;;
616;SDS011;295;51.628;7.520;2022-08-14T01:12:41;8.77;;;6.57;;
616;SDS011;295;51.628;7.520;2022-08-14T01:15:35;7.00;;;6.30;;
616;SDS011;295;51.628;7.520;2022-08-14T01:19:00;6.53;;;5.83;;
616;SDS011;295;51.628;7.520;2022-08-14T01:22:11;6.23;;;5.63;;
616;SDS011;295;51.628;7.520;2022-08-14T01:25:06;6.90;;;6.20;;
616;SDS011;295;51.628;7.520;2022-08-14T01:27:59;6.90;;;6.20;;
616;SDS011;295;51.628;7.520;2022-08-14T01:30:50;5.37;;;4.87;;
616;SDS011;295;51.628;7.520;2022-08-14T01:33:45;7.00;;;6.33;;
616;SDS011;295;51.628;7.520;2022-08-14T01:37:00;7.70;;;6.90;;
616;SDS011;295;51.628;7.520;2022-08-14T01:39:57;6.97;;;6.27;;
616;SDS011;295;51.628;7.520;2022-08-14T01:42:49;7.53;;;6.70;;
616;SDS011;295;51.628;7.520;2022-08-14T01:45:46;6.80;;;6.20;;
616;SDS011;295;51.628;7.520;2022-08-14T01:48:53;6.23;;;5.73;;
616;SDS011;295;51.628;7.520;2022-08-14T01:51:45;6.93;;;6.30;;
616;SDS011;295;51.628;7.520;2022-08-14T01:54:35;6.73;;;6.13;;
616;SDS011;295;51.628;7.520;2022-08-14T01:57:45;10.10;;;7.40;;
616;SDS011;295;51.628;7.520;2022-08-14T02:00:48;8.10;;;6.93;;
616;SDS011;295;51.628;7.520;2022-08-14T02:03:55;8.63;;;6.30;;
616;SDS011;295;51.628;7.520;2022-08-14T02:06:50;6.73;;;6.00;;
616;SDS011;295;51.628;7.520;2022-08-14T02:09:40;7.97;;;6.90;;
616;SDS011;295;51.628;7.520;2022-08-14T02:12:45;7.37;;;6.40;;
616;SDS011;295;51.628;7.520;2022-08-14T02:15:45;8.23;;;7.47;;
616;SDS011;295;51.628;7.520;2022-08-14T02:18:37;6.47;;;5.83;;
616;SDS011;295;51.628;7.520;2022-08-14T02:21:42;8.67;;;7.80;;
616;SDS011;295;51.628;7.520;2022-08-14T02:24:35;7.83;;;6.93;;
616;SDS011;295;51.628;7.520;2022-08-14T02:27:31;11.20;;;7.60;;
616;SDS011;295;51.628;7.520;2022-08-14T02:30:48;7.97;;;6.80;;
616;SDS011;295;51.628;7.520;2022-08-14T02:33:38;7.90;;;7.10;;
616;SDS011;295;51.628;7.520;2022-08-14T02:36:31;9.40;;;7.80;;
616;SDS011;295;51.628;7.520;2022-08-14T02:39:42;8.63;;;7.90;;
616;SDS011;295;51.628;7.520;2022-08-14T02:42:37;7.50;;;6.73;;
616;SDS011;295;51.628;7.520;2022-08-14T02:45:42;8.53;;;7.07;;
616;SDS011;295;51.628;7.520;2022-08-14T02:49:02;7.83;;;7.10;;
616;SDS011;295;51.628;7.520;2022-08-14T02:51:54;8.97;;;8.17;;
616;SDS011;295;51.628;7.520;2022-08-14T02:54:45;9.13;;;8.40;;
616;SDS011;295;51.628;7.520;2022-08-14T02:57:39;7.40;;;6.70;;
616;SDS011;295;51.628;7.520;2022-08-14T03:00:48;8.93;;;7.00;;
616;SDS011;295;51.628;7.520;2022-08-14T03:03:46;7.93;;;7.13;;
616;SDS011;295;51.628;7.520;2022-08-14T03:06:44;7.50;;;6.70;;
616;SDS011;295;51.628;7.520;2022-08-14T03:09:56;8.83;;;6.73;;
616;SDS011;295;51.628;7.520;2022-08-14T03:13:13;8.67;;;7.77;;
616;SDS011;295;51.628;7.520;2022-08-14T03:16:08;11.43;;;8.70;;
616;SDS011;295;51.628;7.520;2022-08-14T03:19:15;8.23;;;7.50;;
616;SDS011;295;51.628;7.520;2022-08-14T03:22:11;10.73;;;7.40;;
616;SDS011;295;51.628;7.520;2022-08-14T03:25:04;9.50;;;6.90;;
616;SDS011;295;51.628;7.520;2022-08-14T03:28:04;10.03;;;8.07;;
616;SDS011;295;51.628;7.520;2022-08-14T03:31:15;9.77;;;8.87;;
616;SDS011;295;51.628;7.520;2022-08-14T03:34:15;11.30;;;10.20;;
616;SDS011;295;51.628;7.520;2022-08-14T03:37:33;10.63;;;9.63;;
616;SDS011;295;51.628;7.520;2022-08-14T03:40:51;10.93;;;10.03;;
616;SDS011;295;51.628;7.520;2022-08-14T03:43:57;11.10;;;10.10;;
616;SDS011;295;51.628;7.520;2022-08-14T03:47:22;12.07;;;11.07;;
616;SDS011;295;51.628;7.520;2022-08-14T03:50:32;11.87;;;10.87;;
616;SDS011;295;51.628;7.520;2022-08-14T03:53:29;10.90;;;9.90;;
616;SDS011;295;51.628;7.520;2022-08-14T03:56:22;9.13;;;8.23;;
616;SDS011;295;51.628;7.520;2022-08-14T03:59:13;8.87;;;7.67;;
616;SDS011;295;51.628;7.520;2022-08-14T04:02:07;9.33;;;8.40;;
616;SDS011;295;51.628;7.520;2022-08-14T04:05:20;8.07;;;7.27;;
616;SDS011;295;51.628;7.520;2022-08-14T04:08:28;8.70;;;7.57;;
616;SDS011;295;51.628;7.520;2022-08-14T04:11:25;8.20;;;7.40;;
616;SDS011;295;51.628;7.520;2022-08-14T04:14:27;7.90;;;7.10;;
616;SDS011;295;51.628;7.520;2022-08-14T04:17:23;11.20;;;7.80;;
616;SDS011;295;51.628;7.520;2022-08-14T04:20:18;8.37;;;7.07;;
616;SDS011;295;51.628;7.520;2022-08-14T04:23:13;11.20;;;9.20;;
616;SDS011;295;51.628;7.520;2022-08-14T04:26:11;13.63;;;8.07;;
616;SDS011;295;51.628;7.520;2022-08-14T04:32:38;8.93;;;8.10;;
616;SDS011;295;51.628;7.520;2022-08-14T04:35:54;11.93;;;10.90;;
616;SDS011;295;51.628;7.520;2022-08-14T04:38:47;9.67;;;8.87;;
616;SDS011;295;51.628;7.520;2022-08-14T04:42:01;11.83;;;10.73;;
616;SDS011;295;51.628;7.520;2022-08-14T04:45:34;11.47;;;8.87;;
616;SDS011;295;51.628;7.520;2022-08-14T04:48:29;8.90;;;7.90;;
616;SDS011;295;51.628;7.520;2022-08-14T04:51:44;10.17;;;7.40;;
616;SDS011;295;51.628;7.520;2022-08-14T04:54:42;9.63;;;8.67;;
616;SDS011;295;51.628;7.520;2022-08-14T04:57:32;10.00;;;8.57;;
616;SDS011;295;51.628;7.520;2022-08-14T05:00:25;8.53;;;7.80;;
616;SDS011;295;51.628;7.520;2022-08-14T05:03:16;9.83;;;7.87;;
616;SDS011;295;51.628;7.520;2022-08-14T05:06:17;8.97;;;7.90;;
616;SDS011;295;51.628;7.520;2022-08-14T05:09:26;8.70;;;7.80;;
616;SDS011;295;51.628;7.520;2022-08-14T05:12:21;8.83;;;7.97;;
616;SDS011;295;51.628;7.520;2022-08-14T05:15:34;8.73;;;7.83;;
616;SDS011;295;51.628;7.520;2022-08-14T05:18:26;10.13;;;8.50;;
616;SDS011;295;51.628;7.520;2022-08-14T05:21:53;9.17;;;7.83;;
616;SDS011;295;51.628;7.520;2022-08-14T05:25:04;13.07;;;9.70;;
616;SDS011;295;51.628;7.520;2022-08-14T05:27:56;9.37;;;8.40;;
616;SDS011;295;51.628;7.520;2022-08-14T05:30:47;9.30;;;8.43;;
616;SDS011;295;51.628;7.520;2022-08-14T05:33:40;9.77;;;8.73;;
616;SDS011;295;51.628;7.520;2022-08-14T05:36:42;9.20;;;8.30;;
616;SDS011;295;51.628;7.520;2022-08-14T05:39:54;9.43;;;8.47;;
616;SDS011;295;51.628;7.520;2022-08-14T05:42:47;8.47;;;7.53;;
616;SDS011;295;51.628;7.520;2022-08-14T05:45:39;10.27;;;8.57;;
616;SDS011;295;51.628;7.520;2022-08-14T05:48:31;10.80;;;7.87;;
616;SDS011;295;51.628;7.520;2022-08-14T05:51:30;9.67;;;7.73;;
616;SDS011;295;51.628;7.520;2022-08-14T05:54:23;10.17;;;8.43;;
616;SDS011;295;51.628;7.520;2022-08-14T05:57:27;9.30;;;8.40;;
616;SDS011;295;51.628;7.520;2022-08-14T06:00:22;10.20;;;9.07;;
616;SDS011;295;51.628;7.520;2022-08-14T06:03:18;8.13;;;7.30;;
616;SDS011;295;51.628;7.520;2022-08-14T06:06:12;9.63;;;8.60;;
616;SDS011;295;51.628;7.520;2022-08-14T06:09:14;9.37;;;8.10;;
616;SDS011;295;51.628;7.520;2022-08-14T06:12:07;9.53;;;8.00;;
616;SDS011;295;51.628;7.520;2022-08-14T06:15:23;9.03;;;8.13;;
616;SDS011;295;51.628;7.520;2022-08-14T06:18:16;10.93;;;7.60;;
616;SDS011;295;51.628;7.520;2022-08-14T06:21:13;11.63;;;7.47;;
616;SDS011;295;51.628;7.520;2022-08-14T06:24:19;7.97;;;7.27;;
616;SDS011;295;51.628;7.520;2022-08-14T06:27:23;9.73;;;7.80;;
616;SDS011;295;51.628;7.520;2022-08-14T06:30:23;9.00;;;7.60;;
616;SDS011;295;51.628;7.520;2022-08-14T06:33:33;8.97;;;8.07;;
616;SDS011;295;51.628;7.520;2022-08-14T06:36:52;9.00;;;7.90;;
616;SDS011;295;51.628;7.520;2022-08-14T06:39:44;7.50;;;6.73;;
616;SDS011;295;51.628;7.520;2022-08-14T06:42:33;7.90;;;7.10;;
616;SDS011;295;51.628;7.520;2022-08-14T06:45:30;9.30;;;8.03;;
616;SDS011;295;51.628;7.520;2022-08-14T06:48:22;8.77;;;7.80;;
616;SDS011;295;51.628;7.520;2022-08-14T06:51:20;8.83;;;8.10;;
616;SDS011;295;51.628;7.520;2022-08-14T06:54:30;8.90;;;8.00;;
616;SDS011;295;51.628;7.520;2022-08-14T06:57:23;8.77;;;7.97;;
616;SDS011;295;51.628;7.520;2022-08-14T07:00:16;8.23;;;7.43;;
616;SDS011;295;51.628;7.520;2022-08-14T07:03:15;8.97;;;8.10;;
616;SDS011;295;51.628;7.520;2022-08-14T07:06:26;8.83;;;7.80;;
616;SDS011;295;51.628;7.520;2022-08-14T07:09:34;10.10;;;7.47;;
616;SDS011;295;51.628;7.520;2022-08-14T07:12:36;8.67;;;7.60;;
616;SDS011;295;51.628;7.520;2022-08-14T07:15:45;7.50;;;6.90;;
616;SDS011;295;51.628;7.520;2022-08-14T07:18:44;8.52;;;7.78;;
616;SDS011;295;51.628;7.520;2022-08-14T07:21:38;9.05;;;8.15;;
616;SDS011;295;51.628;7.520;2022-08-14T07:24:27;8.50;;;7.80;;
616;SDS011;295;51.628;7.520;2022-08-14T07:27:21;8.38;;;7.68;;
616;SDS011;295;51.628;7.520;2022-08-14T07:30:12;9.65;;;8.85;;
616;SDS011;295;51.628;7.520;2022-08-14T07:33:21;8.77;;;8.07;;
616;SDS011;295;51.628;7.520;2022-08-14T07:36:18;8.65;;;7.85;;
616;SDS011;295;51.628;7.520;2022-08-14T07:39:16;9.65;;;8.90;;
616;SDS011;295;51.628;7.520;2022-08-14T07:42:14;8.65;;;7.95;;
616;SDS011;295;51.628;7.520;2022-08-14T07:45:10;9.73;;;9.00;;
616;SDS011;295;51.628;7.520;2022-08-14T07:48:03;8.48;;;7.88;;
616;SDS011;295;51.628;7.520;2022-08-14T07:51:03;8.70;;;8.00;;
616;SDS011;295;51.628;7.520;2022-08-14T07:54:04;8.18;;;7.47;;
616;SDS011;295;51.628;7.520;2022-08-14T07:56:58;8.65;;;7.90;;
616;SDS011;295;51.628;7.520;2022-08-14T07:59:58;10.43;;;8.55;;
616;SDS011;295;51.628;7.520;2022-08-14T08:02:49;8.73;;;8.10;;
616;SDS011;295;51.628;7.520;2022-08-14T08:05:46;9.15;;;8.45;;
616;SDS011;295;51.628;7.520;2022-08-14T08:08:38;8.07;;;7.47;;
616;SDS011;295;51.628;7.520;2022-08-14T08:11:47;9.52;;;8.85;;
616;SDS011;295;51.628;7.520;2022-08-14T08:14:43;9.07;;;8.38;;
616;SDS011;295;51.628;7.520;2022-08-14T08:17:48;8.95;;;8.25;;
616;SDS011;295;51.628;7.520;2022-08-14T08:20:50;8.95;;;8.15;;
616;SDS011;295;51.628;7.520;2022-08-14T08:23:45;9.57;;;8.68;;
616;SDS011;295;51.628;7.520;2022-08-14T08:26:37;8.07;;;7.47;;
616;SDS011;295;51.628;7.520;2022-08-14T08:29:29;9.65;;;8.95;;
616;SDS011;295;51.628;7.520;2022-08-14T08:32:18;8.90;;;8.20;;
616;SDS011;295;51.628;7.520;2022-08-14T08:35:16;8.38;;;7.78;;
616;SDS011;295;51.628;7.520;2022-08-14T08:38:08;8.25;;;7.65;;
616;SDS011;295;51.628;7.520;2022-08-14T08:41:18;8.50;;;7.90;;
616;SDS011;295;51.628;7.520;2022-08-14T08:44:28;9.85;;;8.88;;
616;SDS011;295;51.628;7.520;2022-08-14T08:47:23;8.85;;;7.97;;
616;SDS011;295;51.628;7.520;2022-08-14T08:50:26;7.88;;;7.38;;
616;SDS011;295;51.628;7.520;2022-08-14T08:53:29;7.97;;;7.40;;
616;SDS011;295;51.628;7.520;2022-08-14T08:56:33;8.68;;;7.88;;
616;SDS011;295;51.628;7.520;2022-08-14T08:59:26;7.63;;;7.13;;
616;SDS011;295;51.628;7.520;2022-08-14T09:02:23;8.57;;;7.97;;
616;SDS011;295;51.628;7.520;2022-08-14T09:05:13;8.60;;;8.00;;
616;SDS011;295;51.628;7.520;2022-08-14T09:08:11;8.85;;;8.15;;
616;SDS011;295;51.628;7.520;2022-08-14T09:11:19;8.00;;;7.40;;
616;SDS011;295;51.628;7.520;2022-08-14T09:14:13;7.30;;;6.70;;
616;SDS011;295;51.628;7.520;2022-08-14T09:17:04;7.90;;;7.35;;
616;SDS011;295;51.628;7.520;2022-08-14T09:19:57;7.82;;;7.22;;
616;SDS011;295;51.628;7.520;2022-08-14T09:22:50;6.50;;;6.10;;
616;SDS011;295;51.628;7.520;2022-08-14T09:25:45;6.78;;;6.28;;
616;SDS011;295;51.628;7.520;2022-08-14T09:28:48;6.63;;;6.13;;
616;SDS011;295;51.628;7.520;2022-08-14T09:31:41;7.22;;;6.72;;
616;SDS011;295;51.628;7.520;2022-08-14T09:34:46;7.07;;;6.68;;
616;SDS011;295;51.628;7.520;2022-08-14T09:38:04;6.45;;;6.00;;
616;SDS011;295;51.628;7.520;2022-08-14T09:41:15;5.97;;;5.57;;
616;SDS011;295;51.628;7.520;2022-08-14T09:44:42;7.53;;;6.93;;
616;SDS011;295;51.628;7.520;2022-08-14T09:47:55;6.40;;;5.90;;
616;SDS011;295;51.628;7.520;2022-08-14T09:50:49;6.30;;;5.80;;
616;SDS011;295;51.628;7.520;2022-08-14T09:53:56;6.57;;;6.03;;
616;SDS011;295;51.628;7.520;2022-08-14T09:57:10;6.72;;;6.28;;
616;SDS011;295;51.628;7.520;2022-08-14T10:00:15;6.10;;;5.70;;
616;SDS011;295;51.628;7.520;2022-08-14T10:03:27;5.95;;;5.53;;
616;SDS011;295;51.628;7.520;2022-08-14T10:06:22;7.00;;;6.57;;
616;SDS011;295;51.628;7.520;2022-08-14T10:09:18;6.80;;;6.35;;
616;SDS011;295;51.628;7.520;2022-08-14T10:12:08;6.57;;;6.18;;
616;SDS011;295;51.628;7.520;2022-08-14T10:15:15;7.15;;;6.43;;
616;SDS011;295;51.628;7.520;2022-08-14T10:18:11;6.35;;;5.95;;
616;SDS011;295;51.628;7.520;2022-08-14T10:21:07;7.07;;;6.47;;
616;SDS011;295;51.628;7.520;2022-08-14T10:24:10;6.07;;;5.68;;
616;SDS011;295;51.628;7.520;2022-08-14T10:27:24;5.80;;;5.30;;
616;SDS011;295;51.628;7.520;2022-08-14T10:30:14;6.05;;;5.65;;
616;SDS011;295;51.628;7.520;2022-08-14T10:33:09;6.20;;;5.70;;
616;SDS011;295;51.628;7.520;2022-08-14T10:36:00;5.40;;;5.10;;
616;SDS011;295;51.628;7.520;2022-08-14T10:38:59;6.25;;;5.80;;
616;SDS011;295;51.628;7.520;2022-08-14T10:42:02;7.30;;;6.80;;
616;SDS011;295;51.628;7.520;2022-08-14T10:45:15;6.63;;;6.13;;
616;SDS011;295;51.628;7.520;2022-08-14T10:48:13;7.07;;;6.60;;
616;SDS011;295;51.628;7.520;2022-08-14T10:51:25;7.38;;;6.28;;
616;SDS011;295;51.628;7.520;2022-08-14T10:54:16;6.75;;;6.25;;
616;SDS011;295;51.628;7.520;2022-08-14T10:57:30;6.18;;;5.68;;
616;SDS011;295;51.628;7.520;2022-08-14T11:00:26;5.90;;;5.35;;
616;SDS011;295;51.628;7.520;2022-08-14T11:03:23;5.90;;;5.30;;
616;SDS011;295;51.628;7.520;2022-08-14T11:06:37;6.00;;;5.50;;
616;SDS011;295;51.628;7.520;2022-08-14T11:09:36;5.82;;;5.38;;
616;SDS011;295;51.628;7.520;2022-08-14T11:12:40;6.05;;;5.65;;
616;SDS011;295;51.628;7.520;2022-08-14T11:15:35;5.85;;;5.45;;
616;SDS011;295;51.628;7.520;2022-08-14T11:18:28;5.22;;;4.93;;
616;SDS011;295;51.628;7.520;2022-08-14T11:21:30;6.07;;;5.68;;
616;SDS011;295;51.628;7.520;2022-08-14T11:24:33;5.70;;;5.30;;
616;SDS011;295;51.628;7.520;2022-08-14T11:27:44;5.60;;;5.30;;
616;SDS011;295;51.628;7.520;2022-08-14T11:30:36;5.30;;;4.95;;
616;SDS011;295;51.628;7.520;2022-08-14T11:33:40;4.82;;;4.53;;
616;SDS011;295;51.628;7.520;2022-08-14T11:36:42;5.55;;;4.90;;
616;SDS011;295;51.628;7.520;2022-08-14T11:39:51;5.28;;;4.97;;
616;SDS011;295;51.628;7.520;2022-08-14T11:42:47;5.22;;;4.93;;
616;SDS011;295;51.628;7.520;2022-08-14T11:45:47;5.97;;;5.57;;
616;SDS011;295;51.628;7.520;2022-08-14T11:48:46;6.20;;;5.90;;
616;SDS011;295;51.628;7.520;2022-08-14T11:51:52;5.88;;;5.57;;
616;SDS011;295;51.628;7.520;2022-08-14T11:54:55;7.63;;;5.93;;
616;SDS011;295;51.628;7.520;2022-08-14T11:58:00;5.82;;;5.53;;
616;SDS011;295;51.628;7.520;2022-08-14T12:00:56;6.13;;;5.72;;
616;SDS011;295;51.628;7.520;2022-08-14T12:03:50;6.00;;;5.50;;
616;SDS011;295;51.628;7.520;2022-08-14T12:06:45;6.10;;;5.45;;
616;SDS011;295;51.628;7.520;2022-08-14T12:09:39;6.80;;;6.40;;
616;SDS011;295;51.628;7.520;2022-08-14T12:12:39;5.85;;;5.35;;
616;SDS011;295;51.628;7.520;2022-08-14T12:15:34;5.60;;;5.22;;
616;SDS011;295;51.628;7.520;2022-08-14T12:18:32;6.32;;;5.90;;
616;SDS011;295;51.628;7.520;2022-08-14T12:21:23;7.10;;;6.60;;
616;SDS011;295;51.628;7.520;2022-08-14T12:24:18;6.85;;;6.30;;
616;SDS011;295;51.628;7.520;2022-08-14T12:27:39;6.00;;;5.60;;
616;SDS011;295;51.628;7.520;2022-08-14T12:30:54;6.03;;;5.63;;
616;SDS011;295;51.628;7.520;2022-08-14T12:33:55;6.30;;;5.90;;
616;SDS011;295;51.628;7.520;2022-08-14T12:37:04;5.93;;;5.38;;
616;SDS011;295;51.628;7.520;2022-08-14T12:39:55;6.10;;;5.70;;
616;SDS011;295;51.628;7.520;2022-08-14T12:43:06;5.57;;;5.13;;
616;SDS011;295;51.628;7.520;2022-08-14T12:46:07;5.53;;;5.15;;
616;SDS011;295;51.628;7.520;2022-08-14T12:49:09;5.35;;;4.95;;
616;SDS011;295;51.628;7.520;2022-08-14T12:52:05;6.13;;;5.72;;
616;SDS011;295;51.628;7.520;2022-08-14T12:55:04;6.43;;;5.82;;
616;SDS011;295;51.628;7.520;2022-08-14T12:57:58;5.60;;;5.20;;
616;SDS011;295;51.628;7.520;2022-08-14T13:01:09;6.20;;;5.80;;
616;SDS011;295;51.628;7.520;2022-08-14T13:04:07;7.43;;;6.93;;
616;SDS011;295;51.628;7.520;2022-08-14T13:07:03;6.72;;;6.32;;
616;SDS011;295;51.628;7.520;2022-08-14T13:09:55;6.35;;;5.85;;
616;SDS011;295;51.628;7.520;2022-08-14T13:13:14;6.13;;;5.72;;
616;SDS011;295;51.628;7.520;2022-08-14T13:16:15;6.28;;;5.88;;
616;SDS011;295;51.628;7.520;2022-08-14T13:19:24;6.18;;;5.78;;
616;SDS011;295;51.628;7.520;2022-08-14T13:22:17;6.75;;;6.25;;
616;SDS011;295;51.628;7.520;2022-08-14T13:25:21;5.53;;;5.15;;
616;SDS011;295;51.628;7.520;2022-08-14T13:28:20;6.07;;;5.53;;
616;SDS011;295;51.628;7.520;2022-08-14T13:31:24;6.32;;;5.93;;
616;SDS011;295;51.628;7.520;2022-08-14T13:34:23;5.75;;;5.35;;
616;SDS011;295;51.628;7.520;2022-08-14T13:37:19;5.97;;;5.57;;
616;SDS011;295;51.628;7.520;2022-08-14T13:40:14;5.68;;;5.25;;
616;SDS011;295;51.628;7.520;2022-08-14T13:43:14;5.43;;;5.03;;
616;SDS011;295;51.628;7.520;2022-08-14T13:46:09;5.75;;;5.35;;
616;SDS011;295;51.628;7.520;2022-08-14T13:49:09;4.82;;;4.43;;
616;SDS011;295;51.628;7.520;2022-08-14T13:52:10;5.32;;;4.95;;
616;SDS011;295;51.628;7.520;2022-08-14T13:55:19;5.43;;;5.13;;
616;SDS011;295;51.628;7.520;2022-08-14T13:58:15;5.15;;;4.85;;
616;SDS011;295;51.628;7.520;2022-08-14T14:01:24;5.20;;;4.90;;
616;SDS011;295;51.628;7.520;2022-08-14T14:04:32;5.47;;;5.07;;
616;SDS011;295;51.628;7.520;2022-08-14T14:07:35;5.43;;;5.03;;
616;SDS011;295;51.628;7.520;2022-08-14T14:10:40;5.05;;;4.75;;
616;SDS011;295;51.628;7.520;2022-08-14T14:13:35;4.97;;;4.57;;
616;SDS011;295;51.628;7.520;2022-08-14T14:16:36;5.45;;;5.13;;
616;SDS011;295;51.628;7.520;2022-08-14T14:19:41;5.55;;;5.13;;
616;SDS011;295;51.628;7.520;2022-08-14T14:22:42;5.35;;;5.05;;
616;SDS011;295;51.628;7.520;2022-08-14T14:25:49;5.70;;;5.30;;
616;SDS011;295;51.628;7.520;2022-08-14T14:28:53;5.50;;;5.10;;
616;SDS011;295;51.628;7.520;2022-08-14T14:31:48;5.13;;;4.63;;
616;SDS011;295;51.628;7.520;2022-08-14T14:34:40;4.78;;;4.38;;
616;SDS011;295;51.628;7.520;2022-08-14T14:37:31;5.38;;;4.97;;
616;SDS011;295;51.628;7.520;2022-08-14T14:40:34;5.32;;;4.93;;
616;SDS011;295;51.628;7.520;2022-08-14T14:43:42;5.18;;;4.78;;
616;SDS011;295;51.628;7.520;2022-08-14T14:46:44;5.47;;;5.07;;
616;SDS011;295;51.628;7.520;2022-08-14T14:49:40;5.68;;;5.18;;
616;SDS011;295;51.628;7.520;2022-08-14T14:52:42;5.13;;;4.72;;
616;SDS011;295;51.628;7.520;2022-08-14T14:55:33;5.43;;;5.03;;
616;SDS011;295;51.628;7.520;2022-08-14T14:58:52;5.05;;;4.60;;
616;SDS011;295;51.628;7.520;2022-08-14T15:01:46;4.93;;;4.63;;
616;SDS011;295;51.628;7.520;2022-08-14T15:04:38;5.82;;;5.40;;
616;SDS011;295;51.628;7.520;2022-08-14T15:07:37;4.72;;;4.43;;
616;SDS011;295;51.628;7.520;2022-08-14T15:10:32;5.57;;;4.97;;
616;SDS011;295;51.628;7.520;2022-08-14T15:13:32;4.95;;;4.65;;
616;SDS011;295;51.628;7.520;2022-08-14T15:16:39;5.10;;;4.70;;
616;SDS011;295;51.628;7.520;2022-08-14T15:19:30;5.30;;;4.93;;
616;SDS011;295;51.628;7.520;2022-08-14T15:22:24;5.20;;;4.80;;
616;SDS011;295;51.628;7.520;2022-08-14T15:25:19;4.90;;;4.60;;
616;SDS011;295;51.628;7.520;2022-08-14T15:28:14;5.10;;;4.70;;
616;SDS011;295;51.628;7.520;2022-08-14T15:31:26;5.63;;;5.28;;
616;SDS011;295;51.628;7.520;2022-08-14T15:34:25;5.25;;;4.85;;
616;SDS011;295;51.628;7.520;2022-08-14T15:37:42;5.15;;;4.75;;
616;SDS011;295;51.628;7.520;2022-08-14T15:40:35;5.85;;;5.35;;
616;SDS011;295;51.628;7.520;2022-08-14T15:43:44;5.30;;;4.90;;
616;SDS011;295;51.628;7.520;2022-08-14T15:46:43;5.00;;;4.55;;
616;SDS011;295;51.628;7.520;2022-08-14T15:49:42;4.85;;;4.47;;
616;SDS011;295;51.628;7.520;2022-08-14T15:52:43;6.78;;;4.47;;
616;SDS011;295;51.628;7.520;2022-08-14T15:55:38;5.00;;;4.60;;
616;SDS011;295;51.628;7.520;2022-08-14T15:58:38;4.72;;;4.35;;
616;SDS011;295;51.628;7.520;2022-08-14T16:01:33;4.72;;;4.40;;
616;SDS011;295;51.628;7.520;2022-08-14T16:04:41;4.82;;;4.43;;
616;SDS011;295;51.628;7.520;2022-08-14T16:07:38;5.32;;;4.85;;
616;SDS011;295;51.628;7.520;2022-08-14T16:10:32;4.90;;;4.50;;
616;SDS011;295;51.628;7.520;2022-08-14T16:13:24;4.50;;;4.10;;
616;SDS011;295;51.628;7.520;2022-08-14T16:16:30;4.03;;;3.72;;
616;SDS011;295;51.628;7.520;2022-08-14T16:19:39;17.00;;;6.05;;
616;SDS011;295;51.628;7.520;2022-08-14T16:22:40;4.88;;;4.47;;
616;SDS011;295;51.628;7.520;2022-08-14T16:25:47;4.97;;;4.57;;
616;SDS011;295;51.628;7.520;2022-08-14T16:28:38;4.85;;;4.45;;
616;SDS011;295;51.628;7.520;2022-08-14T16:31:37;4.60;;;4.20;;
616;SDS011;295;51.628;7.520;2022-08-14T16:34:30;4.90;;;4.50;;
616;SDS011;295;51.628;7.520;2022-08-14T16:37:40;5.25;;;4.85;;
616;SDS011;295;51.628;7.520;2022-08-14T16:40:33;4.82;;;4.43;;
616;SDS011;295;51.628;7.520;2022-08-14T16:43:37;5.45;;;5.00;;
616;SDS011;295;51.628;7.520;2022-08-14T16:46:37;4.75;;;4.32;;
616;SDS011;295;51.628;7.520;2022-08-14T16:49:33;4.32;;;3.92;;
616;SDS011;295;51.628;7.520;2022-08-14T16:52:51;5.13;;;4.43;;
616;SDS011;295;51.628;7.520;2022-08-14T16:59:09;4.20;;;3.88;;
616;SDS011;295;51.628;7.520;2022-08-14T17:02:02;4.88;;;4.47;;
616;SDS011;295;51.628;7.520;2022-08-14T17:04:59;4.50;;;4.10;;
616;SDS011;295;51.628;7.520;2022-08-14T17:11:34;4.50;;;4.10;;
616;SDS011;295;51.628;7.520;2022-08-14T17:14:53;5.05;;;4.43;;
616;SDS011;295;51.628;7.520;2022-08-14T17:17:45;4.50;;;4.10;;
616;SDS011;295;51.628;7.520;2022-08-14T17:20:45;5.15;;;4.65;;
616;SDS011;295;51.628;7.520;2022-08-14T17:23:58;5.10;;;4.60;;
616;SDS011;295;51.628;7.520;2022-08-14T17:27:14;5.35;;;4.95;;
616;SDS011;295;51.628;7.520;2022-08-14T17:30:25;5.45;;;5.03;;
616;SDS011;295;51.628;7.520;2022-08-14T17:33:36;5.00;;;4.60;;
616;SDS011;295;51.628;7.520;2022-08-14T17:36:38;5.00;;;4.50;;
616;SDS011;295;51.628;7.520;2022-08-14T17:39:32;5.10;;;4.70;;
616;SDS011;295;51.628;7.520;2022-08-14T17:45:49;4.97;;;4.50;;
616;SDS011;295;51.628;7.520;2022-08-14T17:48:42;6.07;;;5.47;;
616;SDS011;295;51.628;7.520;2022-08-14T17:52:01;4.70;;;4.30;;
616;SDS011;295;51.628;7.520;2022-08-14T17:55:06;5.28;;;4.88;;
616;SDS011;295;51.628;7.520;2022-08-14T17:58:18;4.53;;;4.13;;
616;SDS011;295;51.628;7.520;2022-08-14T18:01:11;5.00;;;4.60;;
616;SDS011;295;51.628;7.520;2022-08-14T18:04:12;6.32;;;4.55;;
616;SDS011;295;51.628;7.520;2022-08-14T18:07:15;4.25;;;3.95;;
616;SDS011;295;51.628;7.520;2022-08-14T18:10:34;4.93;;;4.53;;
616;SDS011;295;51.628;7.520;2022-08-14T18:13:42;4.90;;;4.50;;
616;SDS011;295;51.628;7.520;2022-08-14T18:16:40;5.03;;;4.53;;
616;SDS011;295;51.628;7.520;2022-08-14T18:19:33;4.72;;;4.30;;
616;SDS011;295;51.628;7.520;2022-08-14T18:22:32;4.57;;;4.18;;
616;SDS011;295;51.628;7.520;2022-08-14T18:25:33;4.10;;;3.70;;
616;SDS011;295;51.628;7.520;2022-08-14T18:28:31;5.00;;;3.42;;
616;SDS011;295;51.628;7.520;2022-08-14T18:31:38;5.28;;;3.60;;
616;SDS011;295;51.628;7.520;2022-08-14T18:34:35;3.60;;;3.30;;
616;SDS011;295;51.628;7.520;2022-08-14T18:37:38;3.80;;;3.40;;
616;SDS011;295;51.628;7.520;2022-08-14T18:40:44;6.82;;;4.28;;
616;SDS011;295;51.628;7.520;2022-08-14T18:43:41;5.18;;;4.20;;
616;SDS011;295;51.628;7.520;2022-08-14T18:50:06;4.57;;;4.17;;
616;SDS011;295;51.628;7.520;2022-08-14T18:53:16;6.50;;;3.90;;
616;SDS011;295;51.628;7.520;2022-08-14T18:56:11;3.87;;;3.47;;
616;SDS011;295;51.628;7.520;2022-08-14T18:59:26;4.00;;;3.53;;
616;SDS011;295;51.628;7.520;2022-08-14T19:02:40;3.40;;;3.10;;
616;SDS011;295;51.628;7.520;2022-08-14T19:08:51;3.17;;;2.87;;
616;SDS011;295;51.628;7.520;2022-08-14T19:11:49;4.53;;;3.17;;
616;SDS011;295;51.628;7.520;2022-08-14T19:14:45;6.20;;;3.37;;
616;SDS011;295;51.628;7.520;2022-08-14T19:17:50;4.40;;;3.60;;
616;SDS011;295;51.628;7.520;2022-08-14T19:21:04;3.60;;;3.30;;
616;SDS011;295;51.628;7.520;2022-08-14T19:24:05;3.43;;;3.10;;
616;SDS011;295;51.628;7.520;2022-08-14T19:27:18;4.60;;;3.77;;
616;SDS011;295;51.628;7.520;2022-08-14T19:30:24;4.43;;;3.87;;
616;SDS011;295;51.628;7.520;2022-08-14T19:36:40;4.00;;;3.70;;
616;SDS011;295;51.628;7.520;2022-08-14T19:40:06;4.30;;;3.90;;
616;SDS011;295;51.628;7.520;2022-08-14T19:43:06;5.03;;;3.40;;
616;SDS011;295;51.628;7.520;2022-08-14T19:45:57;4.70;;;4.00;;
616;SDS011;295;51.628;7.520;2022-08-14T19:48:47;3.93;;;3.33;;
616;SDS011;295;51.628;7.520;2022-08-14T19:51:43;5.43;;;4.20;;